sensor_id;sensor_type;location;lat;lon;timestamp;P1;durP1;ratioP1;P2;durP2;ratioP2
40339;SDS011;26044;50.864;20.658;2024-02-14T00:01:12;25.17;;;8.95;;
40339;SDS011;26044;50.864;20.658;2024-02-14T00:03:39;25.65;;;9.82;;
40339;SDS011;26044;50.864;20.658;2024-02-14T00:06:07;24.55;;;9.23;;
40339;SDS011;26044;50.864;20.658;2024-02-14T00:08:34;27.77;;;10.20;;
40339;SDS011;26044;50.864;20.658;2024-02-14T00:11:02;23.63;;;9.18;;
40339;SDS011;26044;50.864;20.658;2024-02-14T00:13:29;27.08;;;10.00;;
40339;SDS011;26044;50.864;20.658;2024-02-14T00:16:01;27.50;;;9.25;;
40339;SDS011;26044;50.864;20.658;2024-02-14T00:18:29;29.77;;;10.43;;
40339;SDS011;26044;50.864;20.658;2024-02-14T00:20:57;30.10;;;10.32;;
40339;SDS011;26044;50.864;20.658;2024-02-14T00:23:24;28.20;;;10.48;;
40339;SDS011;26044;50.864;20.658;2024-02-14T00:25:51;28.48;;;11.57;;
40339;SDS011;26044;50.864;20.658;2024-02-14T00:28:18;27.17;;;9.75;;
40339;SDS011;26044;50.864;20.658;2024-02-14T00:30:46;25.08;;;10.02;;
40339;SDS011;26044;50.864;20.658;2024-02-14T00:33:13;23.80;;;9.25;;
40339;SDS011;26044;50.864;20.658;2024-02-14T00:35:40;28.48;;;9.73;;
40339;SDS011;26044;50.864;20.658;2024-02-14T00:38:08;21.85;;;8.95;;
40339;SDS011;26044;50.864;20.658;2024-02-14T00:40:35;24.52;;;9.18;;
40339;SDS011;26044;50.864;20.658;2024-02-14T00:43:03;23.30;;;9.13;;
40339;SDS011;26044;50.864;20.658;2024-02-14T00:45:30;24.40;;;9.27;;
40339;SDS011;26044;50.864;20.658;2024-02-14T00:47:57;24.70;;;10.25;;
40339;SDS011;26044;50.864;20.658;2024-02-14T00:50:25;25.50;;;9.38;;
40339;SDS011;26044;50.864;20.658;2024-02-14T00:52:52;26.85;;;9.88;;
40339;SDS011;26044;50.864;20.658;2024-02-14T00:55:19;26.23;;;9.20;;
40339;SDS011;26044;50.864;20.658;2024-02-14T00:57:46;26.90;;;9.82;;
40339;SDS011;26044;50.864;20.658;2024-02-14T01:00:13;28.88;;;10.57;;
40339;SDS011;26044;50.864;20.658;2024-02-14T01:02:43;26.40;;;9.88;;
40339;SDS011;26044;50.864;20.658;2024-02-14T01:05:11;24.63;;;8.57;;
40339;SDS011;26044;50.864;20.658;2024-02-14T01:07:38;27.83;;;9.50;;
40339;SDS011;26044;50.864;20.658;2024-02-14T01:10:05;24.83;;;9.23;;
40339;SDS011;26044;50.864;20.658;2024-02-14T01:12:33;25.08;;;9.40;;
40339;SDS011;26044;50.864;20.658;2024-02-14T01:15:00;30.25;;;10.35;;
40339;SDS011;26044;50.864;20.658;2024-02-14T01:17:27;26.20;;;10.07;;
40339;SDS011;26044;50.864;20.658;2024-02-14T01:19:55;27.05;;;9.48;;
40339;SDS011;26044;50.864;20.658;2024-02-14T01:22:22;27.63;;;10.60;;
40339;SDS011;26044;50.864;20.658;2024-02-14T01:24:49;28.67;;;10.90;;
40339;SDS011;26044;50.864;20.658;2024-02-14T01:27:17;27.33;;;9.32;;
40339;SDS011;26044;50.864;20.658;2024-02-14T01:29:44;27.55;;;9.60;;
40339;SDS011;26044;50.864;20.658;2024-02-14T01:32:12;25.25;;;9.75;;
40339;SDS011;26044;50.864;20.658;2024-02-14T01:34:39;25.40;;;9.57;;
40339;SDS011;26044;50.864;20.658;2024-02-14T01:37:08;25.55;;;9.80;;
40339;SDS011;26044;50.864;20.658;2024-02-14T01:39:36;25.50;;;9.38;;
40339;SDS011;26044;50.864;20.658;2024-02-14T01:42:03;25.77;;;9.55;;
40339;SDS011;26044;50.864;20.658;2024-02-14T01:44:33;27.35;;;9.55;;
40339;SDS011;26044;50.864;20.658;2024-02-14T01:47:02;25.23;;;9.13;;
40339;SDS011;26044;50.864;20.658;2024-02-14T01:49:30;23.75;;;9.40;;
40339;SDS011;26044;50.864;20.658;2024-02-14T01:51:58;28.77;;;9.65;;
40339;SDS011;26044;50.864;20.658;2024-02-14T01:54:26;30.77;;;9.23;;
40339;SDS011;26044;50.864;20.658;2024-02-14T01:56:54;28.40;;;10.20;;
40339;SDS011;26044;50.864;20.658;2024-02-14T01:59:21;26.52;;;9.10;;
40339;SDS011;26044;50.864;20.658;2024-02-14T02:01:50;28.20;;;10.60;;
40339;SDS011;26044;50.864;20.658;2024-02-14T02:04:20;25.40;;;9.65;;
40339;SDS011;26044;50.864;20.658;2024-02-14T02:06:47;30.13;;;9.73;;
40339;SDS011;26044;50.864;20.658;2024-02-14T02:09:15;28.10;;;10.45;;
40339;SDS011;26044;50.864;20.658;2024-02-14T02:11:51;25.10;;;10.05;;
40339;SDS011;26044;50.864;20.658;2024-02-14T02:14:27;25.58;;;9.93;;
40339;SDS011;26044;50.864;20.658;2024-02-14T02:16:55;26.90;;;11.68;;
40339;SDS011;26044;50.864;20.658;2024-02-14T02:19:23;26.23;;;10.32;;
40339;SDS011;26044;50.864;20.658;2024-02-14T02:21:51;26.63;;;10.48;;
40339;SDS011;26044;50.864;20.658;2024-02-14T02:24:18;26.00;;;11.50;;
40339;SDS011;26044;50.864;20.658;2024-02-14T02:26:45;25.80;;;10.25;;
40339;SDS011;26044;50.864;20.658;2024-02-14T02:29:13;27.60;;;10.50;;
40339;SDS011;26044;50.864;20.658;2024-02-14T02:31:41;26.48;;;9.32;;
40339;SDS011;26044;50.864;20.658;2024-02-14T02:34:09;26.70;;;9.80;;
40339;SDS011;26044;50.864;20.658;2024-02-14T02:36:37;27.58;;;10.93;;
40339;SDS011;26044;50.864;20.658;2024-02-14T02:39:05;24.25;;;9.77;;
40339;SDS011;26044;50.864;20.658;2024-02-14T02:41:32;28.73;;;10.60;;
40339;SDS011;26044;50.864;20.658;2024-02-14T02:44:00;30.60;;;11.63;;
40339;SDS011;26044;50.864;20.658;2024-02-14T02:46:28;26.80;;;10.27;;
40339;SDS011;26044;50.864;20.658;2024-02-14T02:48:56;29.10;;;10.68;;
40339;SDS011;26044;50.864;20.658;2024-02-14T02:51:25;27.70;;;10.52;;
40339;SDS011;26044;50.864;20.658;2024-02-14T02:53:54;26.70;;;10.73;;
40339;SDS011;26044;50.864;20.658;2024-02-14T02:56:21;27.15;;;9.85;;
40339;SDS011;26044;50.864;20.658;2024-02-14T02:58:48;22.92;;;9.23;;
40339;SDS011;26044;50.864;20.658;2024-02-14T03:01:16;28.10;;;10.40;;
40339;SDS011;26044;50.864;20.658;2024-02-14T03:03:43;26.63;;;11.07;;
40339;SDS011;26044;50.864;20.658;2024-02-14T03:06:10;24.33;;;10.52;;
40339;SDS011;26044;50.864;20.658;2024-02-14T03:08:38;28.38;;;11.38;;
40339;SDS011;26044;50.864;20.658;2024-02-14T03:11:06;24.48;;;9.90;;
40339;SDS011;26044;50.864;20.658;2024-02-14T03:13:33;24.33;;;9.38;;
40339;SDS011;26044;50.864;20.658;2024-02-14T03:16:02;29.13;;;11.10;;
40339;SDS011;26044;50.864;20.658;2024-02-14T03:18:30;28.05;;;9.82;;
40339;SDS011;26044;50.864;20.658;2024-02-14T03:20:58;25.88;;;10.10;;
40339;SDS011;26044;50.864;20.658;2024-02-14T03:23:26;27.13;;;10.30;;
40339;SDS011;26044;50.864;20.658;2024-02-14T03:25:54;30.42;;;10.25;;
40339;SDS011;26044;50.864;20.658;2024-02-14T03:28:21;26.30;;;10.38;;
40339;SDS011;26044;50.864;20.658;2024-02-14T03:30:49;28.00;;;11.25;;
40339;SDS011;26044;50.864;20.658;2024-02-14T03:33:16;29.08;;;10.35;;
40339;SDS011;26044;50.864;20.658;2024-02-14T03:35:44;27.75;;;9.75;;
40339;SDS011;26044;50.864;20.658;2024-02-14T03:38:12;25.40;;;10.20;;
40339;SDS011;26044;50.864;20.658;2024-02-14T03:40:41;28.02;;;10.05;;
40339;SDS011;26044;50.864;20.658;2024-02-14T03:43:08;30.55;;;11.05;;
40339;SDS011;26044;50.864;20.658;2024-02-14T03:45:38;26.00;;;10.67;;
40339;SDS011;26044;50.864;20.658;2024-02-14T03:48:05;26.60;;;9.85;;
40339;SDS011;26044;50.864;20.658;2024-02-14T03:50:33;26.63;;;9.88;;
40339;SDS011;26044;50.864;20.658;2024-02-14T03:53:00;26.00;;;9.75;;
40339;SDS011;26044;50.864;20.658;2024-02-14T03:55:29;27.90;;;10.98;;
40339;SDS011;26044;50.864;20.658;2024-02-14T03:57:56;28.05;;;10.93;;
40339;SDS011;26044;50.864;20.658;2024-02-14T04:00:24;32.65;;;12.18;;
40339;SDS011;26044;50.864;20.658;2024-02-14T04:02:51;28.73;;;11.73;;
40339;SDS011;26044;50.864;20.658;2024-02-14T04:05:25;29.95;;;11.20;;
40339;SDS011;26044;50.864;20.658;2024-02-14T04:07:54;31.75;;;12.52;;
40339;SDS011;26044;50.864;20.658;2024-02-14T04:10:22;31.33;;;12.20;;
40339;SDS011;26044;50.864;20.658;2024-02-14T04:12:49;31.10;;;12.50;;
40339;SDS011;26044;50.864;20.658;2024-02-14T04:15:16;30.08;;;12.05;;
40339;SDS011;26044;50.864;20.658;2024-02-14T04:17:43;28.88;;;11.65;;
40339;SDS011;26044;50.864;20.658;2024-02-14T04:20:11;26.08;;;10.75;;
40339;SDS011;26044;50.864;20.658;2024-02-14T04:22:38;32.20;;;11.27;;
40339;SDS011;26044;50.864;20.658;2024-02-14T04:25:07;28.13;;;10.55;;
40339;SDS011;26044;50.864;20.658;2024-02-14T04:27:34;26.58;;;9.60;;
40339;SDS011;26044;50.864;20.658;2024-02-14T04:30:01;27.08;;;9.25;;
40339;SDS011;26044;50.864;20.658;2024-02-14T04:32:29;25.70;;;10.18;;
40339;SDS011;26044;50.864;20.658;2024-02-14T04:34:56;26.05;;;10.13;;
40339;SDS011;26044;50.864;20.658;2024-02-14T04:37:25;30.90;;;10.43;;
40339;SDS011;26044;50.864;20.658;2024-02-14T04:39:52;26.80;;;10.30;;
40339;SDS011;26044;50.864;20.658;2024-02-14T04:42:19;26.35;;;10.63;;
40339;SDS011;26044;50.864;20.658;2024-02-14T04:44:47;28.75;;;10.70;;
40339;SDS011;26044;50.864;20.658;2024-02-14T04:47:14;25.60;;;10.18;;
40339;SDS011;26044;50.864;20.658;2024-02-14T04:49:41;29.88;;;10.25;;
40339;SDS011;26044;50.864;20.658;2024-02-14T04:52:08;25.80;;;10.10;;
40339;SDS011;26044;50.864;20.658;2024-02-14T04:54:36;28.20;;;10.32;;
40339;SDS011;26044;50.864;20.658;2024-02-14T04:57:03;28.70;;;10.60;;
40339;SDS011;26044;50.864;20.658;2024-02-14T04:59:31;34.17;;;13.07;;
40339;SDS011;26044;50.864;20.658;2024-02-14T05:01:58;29.67;;;11.75;;
40339;SDS011;26044;50.864;20.658;2024-02-14T05:04:25;29.55;;;11.38;;
40339;SDS011;26044;50.864;20.658;2024-02-14T05:06:53;29.60;;;11.20;;
40339;SDS011;26044;50.864;20.658;2024-02-14T05:09:24;28.98;;;11.70;;
40339;SDS011;26044;50.864;20.658;2024-02-14T05:11:51;28.10;;;11.35;;
40339;SDS011;26044;50.864;20.658;2024-02-14T05:14:19;31.65;;;11.68;;
40339;SDS011;26044;50.864;20.658;2024-02-14T05:16:46;27.80;;;11.82;;
40339;SDS011;26044;50.864;20.658;2024-02-14T05:19:14;31.00;;;12.35;;
40339;SDS011;26044;50.864;20.658;2024-02-14T05:21:41;30.05;;;12.15;;
40339;SDS011;26044;50.864;20.658;2024-02-14T05:24:08;35.97;;;12.85;;
40339;SDS011;26044;50.864;20.658;2024-02-14T05:26:36;31.67;;;11.30;;
40339;SDS011;26044;50.864;20.658;2024-02-14T05:29:04;35.38;;;12.18;;
40339;SDS011;26044;50.864;20.658;2024-02-14T05:31:44;30.40;;;11.15;;
40339;SDS011;26044;50.864;20.658;2024-02-14T05:34:12;29.98;;;11.68;;
40339;SDS011;26044;50.864;20.658;2024-02-14T06:28:48;34.10;;;13.48;;
40339;SDS011;26044;50.864;20.658;2024-02-14T15:58:34;41.05;;;16.73;;
40339;SDS011;26044;50.864;20.658;2024-02-14T16:01:01;38.75;;;16.13;;
40339;SDS011;26044;50.864;20.658;2024-02-14T16:03:32;42.63;;;17.90;;
40339;SDS011;26044;50.864;20.658;2024-02-14T16:08:33;48.17;;;19.25;;
40339;SDS011;26044;50.864;20.658;2024-02-14T16:14:34;65.68;;;30.45;;
40339;SDS011;26044;50.864;20.658;2024-02-14T16:17:03;72.90;;;30.57;;
40339;SDS011;26044;50.864;20.658;2024-02-14T19:52:04;92.00;;;43.05;;
40339;SDS011;26044;50.864;20.658;2024-02-14T20:52:49;112.07;;;50.33;;
40339;SDS011;26044;50.864;20.658;2024-02-14T20:59:41;104.82;;;49.40;;
40339;SDS011;26044;50.864;20.658;2024-02-14T21:04:54;90.13;;;40.00;;
40339;SDS011;26044;50.864;20.658;2024-02-14T21:07:28;92.63;;;42.78;;
40339;SDS011;26044;50.864;20.658;2024-02-14T21:10:06;76.72;;;34.80;;
40339;SDS011;26044;50.864;20.658;2024-02-14T21:12:33;70.28;;;33.75;;
40339;SDS011;26044;50.864;20.658;2024-02-14T21:15:03;68.85;;;31.83;;
40339;SDS011;26044;50.864;20.658;2024-02-14T21:17:43;77.45;;;37.08;;
40339;SDS011;26044;50.864;20.658;2024-02-14T21:20:18;74.55;;;34.47;;
40339;SDS011;26044;50.864;20.658;2024-02-14T21:22:51;66.75;;;30.52;;
40339;SDS011;26044;50.864;20.658;2024-02-14T21:25:23;69.10;;;31.50;;
40339;SDS011;26044;50.864;20.658;2024-02-14T21:27:55;49.60;;;23.33;;
40339;SDS011;26044;50.864;20.658;2024-02-14T21:30:31;62.25;;;28.35;;
40339;SDS011;26044;50.864;20.658;2024-02-14T21:33:07;56.20;;;26.95;;
40339;SDS011;26044;50.864;20.658;2024-02-14T21:36:05;57.95;;;26.92;;
40339;SDS011;26044;50.864;20.658;2024-02-14T21:38:47;53.85;;;24.60;;
40339;SDS011;26044;50.864;20.658;2024-02-14T21:43:54;49.55;;;22.73;;
40339;SDS011;26044;50.864;20.658;2024-02-14T21:46:21;51.45;;;21.10;;
40339;SDS011;26044;50.864;20.658;2024-02-14T21:48:56;46.30;;;20.10;;
40339;SDS011;26044;50.864;20.658;2024-02-14T21:54:03;42.60;;;16.95;;
40339;SDS011;26044;50.864;20.658;2024-02-14T21:56:40;43.65;;;17.98;;
40339;SDS011;26044;50.864;20.658;2024-02-14T21:59:21;42.00;;;17.63;;
40339;SDS011;26044;50.864;20.658;2024-02-14T22:01:57;38.88;;;16.70;;
40339;SDS011;26044;50.864;20.658;2024-02-14T22:04:30;41.10;;;17.33;;
40339;SDS011;26044;50.864;20.658;2024-02-14T22:07:00;42.30;;;17.00;;
40339;SDS011;26044;50.864;20.658;2024-02-14T22:09:35;42.90;;;17.92;;
40339;SDS011;26044;50.864;20.658;2024-02-14T22:12:14;35.60;;;14.57;;
40339;SDS011;26044;50.864;20.658;2024-02-14T22:14:53;35.10;;;15.52;;
40339;SDS011;26044;50.864;20.658;2024-02-14T22:17:25;34.53;;;14.35;;
40339;SDS011;26044;50.864;20.658;2024-02-14T22:20:04;38.35;;;15.50;;
40339;SDS011;26044;50.864;20.658;2024-02-14T22:22:48;32.03;;;12.98;;
